sensor_id;sensor_type;location;lat;lon;timestamp;pressure;altitude;pressure_sealevel;temperature;humidity
74232;BME280;62590;52.430;4.902;2022-11-15T00:01:35;100577.31;;;4.68;67.11
74232;BME280;62590;52.430;4.902;2022-11-15T00:04:03;100582.19;;;4.74;67.12
74232;BME280;62590;52.430;4.902;2022-11-15T00:06:29;100579.84;;;4.70;67.11
74232;BME280;62590;52.430;4.902;2022-11-15T00:08:54;100581.44;;;4.72;67.11
74232;BME280;62590;52.430;4.902;2022-11-15T00:11:19;100569.03;;;4.73;67.12
74232;BME280;62590;52.430;4.902;2022-11-15T00:13:45;100571.47;;;4.76;67.11
74232;BME280;62590;52.430;4.902;2022-11-15T00:16:10;100569.03;;;4.73;67.12
74232;BME280;62590;52.430;4.902;2022-11-15T00:18:36;100572.53;;;4.73;67.11
74232;BME280;62590;52.430;4.902;2022-11-15T00:21:04;100569.53;;;4.78;67.11
74232;BME280;62590;52.430;4.902;2022-11-15T00:23:31;100573.81;;;4.80;67.12
74232;BME280;62590;52.430;4.902;2022-11-15T00:25:57;100569.88;;;4.86;67.12
74232;BME280;62590;52.430;4.902;2022-11-15T00:28:24;100564.66;;;4.84;67.12
74232;BME280;62590;52.430;4.902;2022-11-15T00:30:49;100566.25;;;4.87;67.12
74232;BME280;62590;52.430;4.902;2022-11-15T00:33:14;100559.25;;;4.86;67.12
74232;BME280;62590;52.430;4.902;2022-11-15T00:35:40;100564.56;;;4.86;67.13
74232;BME280;62590;52.430;4.902;2022-11-15T00:38:05;100561.47;;;4.92;67.14
74232;BME280;62590;52.430;4.902;2022-11-15T00:40:30;100568.59;;;4.91;67.13
74232;BME280;62590;52.430;4.902;2022-11-15T00:42:56;100561.13;;;4.97;67.14
74232;BME280;62590;52.430;4.902;2022-11-15T00:45:22;100555.94;;;4.95;67.13
74232;BME280;62590;52.430;4.902;2022-11-15T00:47:48;100559.44;;;4.96;67.13
74232;BME280;62590;52.430;4.902;2022-11-15T00:50:13;100554.88;;;4.98;67.13
74232;BME280;62590;52.430;4.902;2022-11-15T00:52:39;100544.97;;;5.00;67.14
74232;BME280;62590;52.430;4.902;2022-11-15T00:55:04;100547.53;;;5.01;67.13
74232;BME280;62590;52.430;4.902;2022-11-15T00:57:30;100534.44;;;4.98;67.13
74232;BME280;62590;52.430;4.902;2022-11-15T00:59:55;100530.59;;;5.02;67.14
74232;BME280;62590;52.430;4.902;2022-11-15T01:02:20;100532.31;;;5.03;67.14
74232;BME280;62590;52.430;4.902;2022-11-15T01:04:46;100528.91;;;5.01;67.14
74232;BME280;62590;52.430;4.902;2022-11-15T01:07:12;100523.47;;;5.03;67.14
74232;BME280;62590;52.430;4.902;2022-11-15T01:09:37;100536.66;;;5.04;67.14
74232;BME280;62590;52.430;4.902;2022-11-15T01:12:03;100530.47;;;5.04;67.14
74232;BME280;62590;52.430;4.902;2022-11-15T01:14:29;100530.47;;;5.04;67.13
74232;BME280;62590;52.430;4.902;2022-11-15T01:16:54;100526.88;;;5.05;67.14
74232;BME280;62590;52.430;4.902;2022-11-15T01:19:19;100531.22;;;5.06;67.14
74232;BME280;62590;52.430;4.902;2022-11-15T01:21:45;100531.34;;;5.04;67.15
74232;BME280;62590;52.430;4.902;2022-11-15T01:24:12;100535.50;;;5.08;67.13
74232;BME280;62590;52.430;4.902;2022-11-15T01:26:37;100525.72;;;5.09;67.13
74232;BME280;62590;52.430;4.902;2022-11-15T01:29:03;100531.03;;;5.09;67.14
74232;BME280;62590;52.430;4.902;2022-11-15T01:31:29;100529.00;;;5.12;67.14
74232;BME280;62590;52.430;4.902;2022-11-15T01:33:54;100521.34;;;5.08;67.14
74232;BME280;62590;52.430;4.902;2022-11-15T01:36:21;100517.31;;;5.15;67.13
74232;BME280;62590;52.430;4.902;2022-11-15T01:38:47;100528.88;;;5.14;67.15
74232;BME280;62590;52.430;4.902;2022-11-15T01:41:21;100524.41;;;5.14;67.14
74232;BME280;62590;52.430;4.902;2022-11-15T01:43:50;100520.91;;;5.14;67.14
74232;BME280;62590;52.430;4.902;2022-11-15T01:46:35;100510.91;;;5.17;67.15
74232;BME280;62590;52.430;4.902;2022-11-15T01:49:04;100505.56;;;5.17;67.14
74232;BME280;62590;52.430;4.902;2022-11-15T01:51:32;100505.44;;;5.19;67.14
74232;BME280;62590;52.430;4.902;2022-11-15T01:54:03;100501.00;;;5.19;67.15
74232;BME280;62590;52.430;4.902;2022-11-15T01:56:33;100499.06;;;5.21;67.14
74232;BME280;62590;52.430;4.902;2022-11-15T01:59:04;100503.34;;;5.24;67.15
74232;BME280;62590;52.430;4.902;2022-11-15T02:01:31;100486.41;;;5.25;67.16
74232;BME280;62590;52.430;4.902;2022-11-15T02:04:02;100482.44;;;5.30;67.16
74232;BME280;62590;52.430;4.902;2022-11-15T02:06:29;100473.41;;;5.33;67.15
74232;BME280;62590;52.430;4.902;2022-11-15T02:08:54;100475.94;;;5.34;67.16
74232;BME280;62590;52.430;4.902;2022-11-15T02:11:21;100461.66;;;5.35;67.15
74232;BME280;62590;52.430;4.902;2022-11-15T02:13:46;100465.06;;;5.37;67.16
74232;BME280;62590;52.430;4.902;2022-11-15T02:19:20;100460.38;;;5.41;67.16
74232;BME280;62590;52.430;4.902;2022-11-15T02:25:26;100464.41;;;5.46;67.17
74232;BME280;62590;52.430;4.902;2022-11-15T02:27:42;100458.22;;;5.46;67.17
74232;BME280;62590;52.430;4.902;2022-11-15T02:33:54;100448.38;;;5.59;67.18
74232;BME280;62590;52.430;4.902;2022-11-15T02:38:57;100434.69;;;5.63;67.19
74232;BME280;62590;52.430;4.902;2022-11-15T02:44:00;100428.19;;;5.67;67.18
74232;BME280;62590;52.430;4.902;2022-11-15T02:46:41;100418.28;;;5.69;67.19
74232;BME280;62590;52.430;4.902;2022-11-15T02:49:32;100422.28;;;5.75;67.18
74232;BME280;62590;52.430;4.902;2022-11-15T02:51:57;100417.22;;;5.72;67.19
74232;BME280;62590;52.430;4.902;2022-11-15T02:54:25;100413.97;;;5.79;67.19
74232;BME280;62590;52.430;4.902;2022-11-15T02:56:53;100410.97;;;5.84;67.20
74232;BME280;62590;52.430;4.902;2022-11-15T02:59:23;100402.06;;;5.96;67.21
74232;BME280;62590;52.430;4.902;2022-11-15T03:04:43;100399.59;;;5.93;67.20
74232;BME280;62590;52.430;4.902;2022-11-15T03:07:27;100395.75;;;5.97;67.20
74232;BME280;62590;52.430;4.902;2022-11-15T03:15:18;100397.69;;;6.06;67.21
74232;BME280;62590;52.430;4.902;2022-11-15T03:17:52;100392.75;;;6.13;67.21
74232;BME280;62590;52.430;4.902;2022-11-15T03:20:20;100399.66;;;6.15;67.23
74232;BME280;62590;52.430;4.902;2022-11-15T03:22:47;100390.56;;;6.18;67.22
74232;BME280;62590;52.430;4.902;2022-11-15T03:25:18;100390.22;;;6.22;67.23
74232;BME280;62590;52.430;4.902;2022-11-15T03:27:49;100384.78;;;6.24;67.22
74232;BME280;62590;52.430;4.902;2022-11-15T03:30:15;100381.84;;;6.27;67.23
74232;BME280;62590;52.430;4.902;2022-11-15T03:32:47;100384.78;;;6.35;67.25
74232;BME280;62590;52.430;4.902;2022-11-15T03:35:17;100383.81;;;6.36;67.25
74232;BME280;62590;52.430;4.902;2022-11-15T03:40:11;100385.16;;;6.41;67.25
74232;BME280;62590;52.430;4.902;2022-11-15T03:45:43;100378.59;;;6.45;67.24
74232;BME280;62590;52.430;4.902;2022-11-15T03:48:14;100380.75;;;6.51;67.26
74232;BME280;62590;52.430;4.902;2022-11-15T03:50:41;100372.63;;;6.64;67.25
74232;BME280;62590;52.430;4.902;2022-11-15T03:53:08;100378.34;;;6.59;67.25
74232;BME280;62590;52.430;4.902;2022-11-15T03:55:33;100378.59;;;6.67;67.26
74232;BME280;62590;52.430;4.902;2022-11-15T03:58:00;100376.75;;;6.68;67.26
74232;BME280;62590;52.430;4.902;2022-11-15T04:00:27;100380.41;;;6.67;67.26
74232;BME280;62590;52.430;4.902;2022-11-15T04:02:53;100377.34;;;6.71;67.26
74232;BME280;62590;52.430;4.902;2022-11-15T04:05:18;100377.25;;;6.73;67.27
74232;BME280;62590;52.430;4.902;2022-11-15T04:07:43;100372.75;;;6.73;67.27
74232;BME280;62590;52.430;4.902;2022-11-15T04:10:10;100376.00;;;6.77;67.28
74232;BME280;62590;52.430;4.902;2022-11-15T04:12:39;100367.66;;;6.81;67.28
74232;BME280;62590;52.430;4.902;2022-11-15T04:15:08;100365.09;;;6.80;67.27
74232;BME280;62590;52.430;4.902;2022-11-15T04:19:59;100361.81;;;6.88;67.27
74232;BME280;62590;52.430;4.902;2022-11-15T04:22:43;100366.28;;;6.87;67.28
74232;BME280;62590;52.430;4.902;2022-11-15T04:25:27;100359.16;;;6.88;67.27
74232;BME280;62590;52.430;4.902;2022-11-15T04:27:53;100355.38;;;6.90;67.28
74232;BME280;62590;52.430;4.902;2022-11-15T04:30:18;100364.69;;;6.96;67.29
74232;BME280;62590;52.430;4.902;2022-11-15T04:32:44;100350.72;;;7.03;67.29
74232;BME280;62590;52.430;4.902;2022-11-15T04:35:09;100365.41;;;6.98;67.29
74232;BME280;62590;52.430;4.902;2022-11-15T04:37:34;100361.66;;;7.00;67.28
74232;BME280;62590;52.430;4.902;2022-11-15T04:40:00;100362.03;;;7.07;67.28
74232;BME280;62590;52.430;4.902;2022-11-15T04:42:25;100364.03;;;7.14;67.29
74232;BME280;62590;52.430;4.902;2022-11-15T04:44:51;100360.13;;;7.18;67.30
74232;BME280;62590;52.430;4.902;2022-11-15T04:47:16;100364.00;;;7.25;67.30
74232;BME280;62590;52.430;4.902;2022-11-15T04:49:41;100362.88;;;7.28;67.29
74232;BME280;62590;52.430;4.902;2022-11-15T04:52:09;100363.09;;;7.36;67.32
74232;BME280;62590;52.430;4.902;2022-11-15T04:54:34;100355.31;;;7.44;67.31
74232;BME280;62590;52.430;4.902;2022-11-15T04:56:59;100351.22;;;7.40;67.31
74232;BME280;62590;52.430;4.902;2022-11-15T04:59:25;100345.81;;;7.51;67.33
74232;BME280;62590;52.430;4.902;2022-11-15T05:01:50;100346.66;;;7.51;67.33
74232;BME280;62590;52.430;4.902;2022-11-15T05:04:15;100353.97;;;7.49;67.32
74232;BME280;62590;52.430;4.902;2022-11-15T05:06:45;100348.06;;;7.55;67.33
74232;BME280;62590;52.430;4.902;2022-11-15T05:09:10;100345.16;;;7.58;67.33
74232;BME280;62590;52.430;4.902;2022-11-15T05:11:38;100346.25;;;7.56;67.33
74232;BME280;62590;52.430;4.902;2022-11-15T05:14:03;100357.78;;;7.56;67.33
74232;BME280;62590;52.430;4.902;2022-11-15T05:16:28;100354.72;;;7.61;67.33
74232;BME280;62590;52.430;4.902;2022-11-15T05:18:54;100363.34;;;7.64;67.32
74232;BME280;62590;52.430;4.902;2022-11-15T05:21:20;100364.81;;;7.57;67.33
74232;BME280;62590;52.430;4.902;2022-11-15T05:23:46;100366.13;;;7.63;67.34
74232;BME280;62590;52.430;4.902;2022-11-15T05:26:11;100375.97;;;7.62;67.34
74232;BME280;62590;52.430;4.902;2022-11-15T05:28:37;100366.59;;;7.68;67.33
74232;BME280;62590;52.430;4.902;2022-11-15T05:31:14;100363.22;;;7.66;67.33
74232;BME280;62590;52.430;4.902;2022-11-15T05:33:40;100366.59;;;7.68;67.33
74232;BME280;62590;52.430;4.902;2022-11-15T05:36:17;100376.16;;;7.70;67.33
74232;BME280;62590;52.430;4.902;2022-11-15T05:38:45;100369.72;;;7.73;67.34
74232;BME280;62590;52.430;4.902;2022-11-15T05:41:12;100374.59;;;7.68;67.33
74232;BME280;62590;52.430;4.902;2022-11-15T05:43:39;100369.44;;;7.76;67.34
74232;BME280;62590;52.430;4.902;2022-11-15T05:46:05;100368.94;;;7.82;67.35
74232;BME280;62590;52.430;4.902;2022-11-15T05:48:32;100373.19;;;7.84;67.35
74232;BME280;62590;52.430;4.902;2022-11-15T05:50:59;100359.53;;;7.88;67.36
74232;BME280;62590;52.430;4.902;2022-11-15T05:53:25;100366.19;;;7.93;67.35
74232;BME280;62590;52.430;4.902;2022-11-15T05:55:51;100374.63;;;7.89;67.36
74232;BME280;62590;52.430;4.902;2022-11-15T05:58:18;100372.91;;;7.88;67.34
74232;BME280;62590;52.430;4.902;2022-11-15T06:00:44;100371.97;;;7.98;67.36
74232;BME280;62590;52.430;4.902;2022-11-15T06:03:10;100375.34;;;8.00;67.35
74232;BME280;62590;52.430;4.902;2022-11-15T06:05:36;100373.09;;;7.96;67.36
74232;BME280;62590;52.430;4.902;2022-11-15T06:08:01;100377.38;;;8.08;67.36
74232;BME280;62590;52.430;4.902;2022-11-15T06:10:26;100384.56;;;8.07;67.36
74232;BME280;62590;52.430;4.902;2022-11-15T06:12:58;100384.94;;;8.03;67.37
74232;BME280;62590;52.430;4.902;2022-11-15T06:15:24;100390.16;;;8.04;67.36
74232;BME280;62590;52.430;4.902;2022-11-15T06:17:49;100392.44;;;8.09;67.37
74232;BME280;62590;52.430;4.902;2022-11-15T06:20:15;100390.16;;;8.04;67.36
74232;BME280;62590;52.430;4.902;2022-11-15T06:22:40;100389.19;;;8.05;67.36
74232;BME280;62590;52.430;4.902;2022-11-15T06:25:06;100394.69;;;8.04;67.35
74232;BME280;62590;52.430;4.902;2022-11-15T06:27:31;100392.81;;;8.04;67.37
74232;BME280;62590;52.430;4.902;2022-11-15T06:29:57;100386.03;;;8.00;67.37
74232;BME280;62590;52.430;4.902;2022-11-15T06:32:22;100390.44;;;8.01;67.37
74232;BME280;62590;52.430;4.902;2022-11-15T06:34:47;100390.09;;;7.95;67.35
74232;BME280;62590;52.430;4.902;2022-11-15T06:37:13;100399.53;;;7.99;67.36
74232;BME280;62590;52.430;4.902;2022-11-15T06:39:38;100405.75;;;7.99;67.36
74232;BME280;62590;52.430;4.902;2022-11-15T06:42:03;100410.38;;;7.97;67.35
74232;BME280;62590;52.430;4.902;2022-11-15T06:44:29;100409.66;;;7.95;67.35
74232;BME280;62590;52.430;4.902;2022-11-15T06:46:54;100409.19;;;7.90;67.35
74232;BME280;62590;52.430;4.902;2022-11-15T06:49:19;100409.19;;;7.90;67.35
74232;BME280;62590;52.430;4.902;2022-11-15T06:51:45;100414.06;;;7.85;67.34
74232;BME280;62590;52.430;4.902;2022-11-15T06:54:10;100415.50;;;7.89;67.35
74232;BME280;62590;52.430;4.902;2022-11-15T06:56:35;100412.53;;;7.82;67.35
74232;BME280;62590;52.430;4.902;2022-11-15T06:59:01;100422.69;;;7.89;67.36
74232;BME280;62590;52.430;4.902;2022-11-15T07:01:26;100415.63;;;7.88;67.34
74232;BME280;62590;52.430;4.902;2022-11-15T07:03:53;100417.59;;;7.85;67.34
74232;BME280;62590;52.430;4.902;2022-11-15T07:06:18;100417.94;;;7.92;67.34
74232;BME280;62590;52.430;4.902;2022-11-15T07:08:43;100417.06;;;7.92;67.35
74232;BME280;62590;52.430;4.902;2022-11-15T07:11:09;100420.03;;;7.89;67.35
74232;BME280;62590;52.430;4.902;2022-11-15T07:13:35;100415.97;;;7.94;67.37
74232;BME280;62590;52.430;4.902;2022-11-15T07:16:06;100427.38;;;7.96;67.36
74232;BME280;62590;52.430;4.902;2022-11-15T07:18:35;100424.44;;;7.99;67.36
74232;BME280;62590;52.430;4.902;2022-11-15T07:21:05;100429.34;;;7.94;67.35
74232;BME280;62590;52.430;4.902;2022-11-15T07:23:31;100418.66;;;7.94;67.37
74232;BME280;62590;52.430;4.902;2022-11-15T07:25:57;100428.06;;;7.98;67.35
74232;BME280;62590;52.430;4.902;2022-11-15T07:28:24;100422.88;;;7.97;67.35
74232;BME280;62590;52.430;4.902;2022-11-15T07:30:50;100424.81;;;7.95;67.37
74232;BME280;62590;52.430;4.902;2022-11-15T07:33:15;100416.22;;;7.91;67.35
74232;BME280;62590;52.430;4.902;2022-11-15T07:35:40;100414.53;;;7.90;67.34
74232;BME280;62590;52.430;4.902;2022-11-15T07:38:07;100417.22;;;7.90;67.35
74232;BME280;62590;52.430;4.902;2022-11-15T07:40:33;100415.97;;;7.94;67.35
74232;BME280;62590;52.430;4.902;2022-11-15T07:43:03;100414.91;;;7.85;67.35
74232;BME280;62590;52.430;4.902;2022-11-15T07:45:29;100421.13;;;7.86;67.35
74232;BME280;62590;52.430;4.902;2022-11-15T07:47:54;100414.91;;;7.85;67.35
74232;BME280;62590;52.430;4.902;2022-11-15T07:50:22;100415.06;;;7.84;67.34
74232;BME280;62590;52.430;4.902;2022-11-15T07:52:53;100409.13;;;7.80;67.34
74232;BME280;62590;52.430;4.902;2022-11-15T07:55:19;100407.03;;;7.84;67.34
74232;BME280;62590;52.430;4.902;2022-11-15T07:57:44;100411.53;;;7.83;67.35
74232;BME280;62590;52.430;4.902;2022-11-15T08:00:10;100405.09;;;7.86;67.35
74232;BME280;62590;52.430;4.902;2022-11-15T08:02:35;100419.69;;;7.82;67.35
74232;BME280;62590;52.430;4.902;2022-11-15T08:05:01;100420.13;;;7.87;67.34
74232;BME280;62590;52.430;4.902;2022-11-15T08:07:28;100406.19;;;7.83;67.35
74232;BME280;62590;52.430;4.902;2022-11-15T08:09:54;100416.28;;;7.80;67.35
74232;BME280;62590;52.430;4.902;2022-11-15T08:12:20;100409.25;;;7.79;67.34
74232;BME280;62590;52.430;4.902;2022-11-15T08:14:45;100408.53;;;7.77;67.35
74232;BME280;62590;52.430;4.902;2022-11-15T08:17:10;100410.09;;;7.79;67.34
74232;BME280;62590;52.430;4.902;2022-11-15T08:19:36;100407.75;;;7.86;67.34
74232;BME280;62590;52.430;4.902;2022-11-15T08:22:01;100406.38;;;7.92;67.35
74232;BME280;62590;52.430;4.902;2022-11-15T08:24:27;100410.56;;;8.05;67.36
74232;BME280;62590;52.430;4.902;2022-11-15T08:26:52;100402.94;;;8.01;67.35
74232;BME280;62590;52.430;4.902;2022-11-15T08:29:17;100394.53;;;8.05;67.37
74232;BME280;62590;52.430;4.902;2022-11-15T08:31:43;100391.88;;;8.05;67.37
74232;BME280;62590;52.430;4.902;2022-11-15T08:34:08;100392.31;;;8.10;67.37
74232;BME280;62590;52.430;4.902;2022-11-15T08:36:33;100377.44;;;8.17;67.37
74232;BME280;62590;52.430;4.902;2022-11-15T08:38:59;100376.72;;;8.15;67.37
74232;BME280;62590;52.430;4.902;2022-11-15T08:41:32;100371.69;;;8.22;67.37
74232;BME280;62590;52.430;4.902;2022-11-15T08:43:58;100375.09;;;8.24;67.37
74232;BME280;62590;52.430;4.902;2022-11-15T08:46:24;100372.88;;;8.29;67.38
74232;BME280;62590;52.430;4.902;2022-11-15T08:48:49;100375.84;;;8.26;67.38
74232;BME280;62590;52.430;4.902;2022-11-15T08:51:15;100373.22;;;8.35;67.40
74232;BME280;62590;52.430;4.902;2022-11-15T08:53:41;100355.91;;;8.39;67.39
74232;BME280;62590;52.430;4.902;2022-11-15T08:56:08;100358.75;;;8.47;67.38
74232;BME280;62590;52.430;4.902;2022-11-15T08:58:34;100356.38;;;8.44;67.41
74232;BME280;62590;52.430;4.902;2022-11-15T09:00:59;100355.50;;;8.44;67.39
74232;BME280;62590;52.430;4.902;2022-11-15T09:03:25;100358.94;;;8.55;67.40
74232;BME280;62590;52.430;4.902;2022-11-15T09:05:58;100360.38;;;8.59;67.40
74232;BME280;62590;52.430;4.902;2022-11-15T09:08:25;100353.88;;;8.62;67.41
74232;BME280;62590;52.430;4.902;2022-11-15T09:10:51;100355.41;;;8.55;67.41
74232;BME280;62590;52.430;4.902;2022-11-15T09:13:16;100354.34;;;8.67;67.41
74232;BME280;62590;52.430;4.902;2022-11-15T09:15:42;100358.53;;;8.69;67.42
74232;BME280;62590;52.430;4.902;2022-11-15T09:18:07;100356.00;;;8.68;67.40
74232;BME280;62590;52.430;4.902;2022-11-15T09:20:33;100352.22;;;8.70;67.42
74232;BME280;62590;52.430;4.902;2022-11-15T09:23:02;100350.13;;;8.74;67.41
74232;BME280;62590;52.430;4.902;2022-11-15T09:25:28;100349.44;;;8.82;67.42
74232;BME280;62590;52.430;4.902;2022-11-15T09:27:54;100344.22;;;8.90;67.44
74232;BME280;62590;52.430;4.902;2022-11-15T09:30:20;100340.59;;;9.00;67.43
74232;BME280;62590;52.430;4.902;2022-11-15T09:32:45;100338.31;;;8.96;67.43
74232;BME280;62590;52.430;4.902;2022-11-15T09:35:10;100337.63;;;9.03;67.44
74232;BME280;62590;52.430;4.902;2022-11-15T09:37:36;100344.94;;;9.01;67.43
74232;BME280;62590;52.430;4.902;2022-11-15T09:40:01;100346.22;;;8.97;67.43
74232;BME280;62590;52.430;4.902;2022-11-15T09:45:15;100346.53;;;9.13;67.44
74232;BME280;62590;52.430;4.902;2022-11-15T09:48:20;100352.28;;;9.09;67.45
74232;BME280;62590;52.430;4.902;2022-11-15T09:50:51;100360.88;;;9.12;67.44
74232;BME280;62590;52.430;4.902;2022-11-15T09:53:43;100345.97;;;9.19;67.45
74232;BME280;62590;52.430;4.902;2022-11-15T09:56:24;100344.56;;;9.15;67.45
74232;BME280;62590;52.430;4.902;2022-11-15T10:03:56;100346.09;;;9.27;67.45
74232;BME280;62590;52.430;4.902;2022-11-15T10:06:26;100347.81;;;9.28;67.46
74232;BME280;62590;52.430;4.902;2022-11-15T10:11:39;100340.63;;;9.19;67.44
74232;BME280;62590;52.430;4.902;2022-11-15T10:14:23;100344.13;;;9.20;67.45
74232;BME280;62590;52.430;4.902;2022-11-15T10:17:13;100341.31;;;9.21;67.45
74232;BME280;62590;52.430;4.902;2022-11-15T10:22:49;100331.91;;;9.17;67.45
74232;BME280;62590;52.430;4.902;2022-11-15T10:25:24;100314.97;;;9.26;67.45
74232;BME280;62590;52.430;4.902;2022-11-15T10:30:20;100308.34;;;9.40;67.47
74232;BME280;62590;52.430;4.902;2022-11-15T10:32:47;100304.38;;;9.53;67.47
74232;BME280;62590;52.430;4.902;2022-11-15T10:35:18;100287.34;;;9.45;67.47
74232;BME280;62590;52.430;4.902;2022-11-15T10:37:44;100290.69;;;9.66;67.48
74232;BME280;62590;52.430;4.902;2022-11-15T10:40:20;100282.94;;;9.53;67.47
74232;BME280;62590;52.430;4.902;2022-11-15T10:42:46;100280.81;;;9.57;67.48
74232;BME280;62590;52.430;4.902;2022-11-15T10:45:30;100259.31;;;9.49;67.48
74232;BME280;62590;52.430;4.902;2022-11-15T10:50:44;100264.00;;;9.74;67.49
74232;BME280;62590;52.430;4.902;2022-11-15T10:55:50;100262.06;;;9.66;67.49
74232;BME280;62590;52.430;4.902;2022-11-15T10:58:33;100250.50;;;9.66;67.49
74232;BME280;62590;52.430;4.902;2022-11-15T11:01:14;100265.28;;;9.70;67.48
74232;BME280;62590;52.430;4.902;2022-11-15T11:03:41;100251.31;;;9.76;67.49
74232;BME280;62590;52.430;4.902;2022-11-15T11:06:13;100245.34;;;9.92;67.50
74232;BME280;62590;52.430;4.902;2022-11-15T11:08:39;100253.28;;;9.84;67.50
74232;BME280;62590;52.430;4.902;2022-11-15T11:11:06;100247.31;;;9.99;67.51
74232;BME280;62590;52.430;4.902;2022-11-15T11:13:38;100252.38;;;9.93;67.50
74232;BME280;62590;52.430;4.902;2022-11-15T11:16:23;100251.22;;;10.05;67.51
74232;BME280;62590;52.430;4.902;2022-11-15T11:24:34;100239.72;;;9.85;67.50
74232;BME280;62590;52.430;4.902;2022-11-15T11:35:19;100240.41;;;9.97;67.51
74232;BME280;62590;52.430;4.902;2022-11-15T11:38:05;100234.28;;;10.14;67.52
74232;BME280;62590;52.430;4.902;2022-11-15T11:40:41;100225.38;;;10.13;67.52
74232;BME280;62590;52.430;4.902;2022-11-15T11:43:34;100226.09;;;10.15;67.53
74232;BME280;62590;52.430;4.902;2022-11-15T11:49:16;100215.31;;;10.25;67.53
74232;BME280;62590;52.430;4.902;2022-11-15T11:51:51;100203.78;;;10.15;67.53
74232;BME280;62590;52.430;4.902;2022-11-15T11:57:11;100193.22;;;10.13;67.52
74232;BME280;62590;52.430;4.902;2022-11-15T11:59:49;100183.28;;;10.23;67.54
74232;BME280;62590;52.430;4.902;2022-11-15T12:02:27;100181.81;;;10.11;67.54
74232;BME280;62590;52.430;4.902;2022-11-15T12:05:09;100173.28;;;10.25;67.53
74232;BME280;62590;52.430;4.902;2022-11-15T12:07:39;100163.09;;;10.29;67.54
74232;BME280;62590;52.430;4.902;2022-11-15T12:10:19;100171.56;;;10.24;67.53
74232;BME280;62590;52.430;4.902;2022-11-15T12:13:04;100152.28;;;10.38;67.54
74232;BME280;62590;52.430;4.902;2022-11-15T12:15:39;100153.38;;;10.45;67.55
74232;BME280;62590;52.430;4.902;2022-11-15T12:18:09;100159.72;;;10.44;67.54
74232;BME280;62590;52.430;4.902;2022-11-15T12:20:39;100153.75;;;10.33;67.54
74232;BME280;62590;52.430;4.902;2022-11-15T12:23:19;100136.75;;;10.42;67.54
74232;BME280;62590;52.430;4.902;2022-11-15T12:25:56;100142.47;;;10.47;67.55
74232;BME280;62590;52.430;4.902;2022-11-15T12:28:41;100141.94;;;10.43;67.55
74232;BME280;62590;52.430;4.902;2022-11-15T12:33:47;100138.94;;;10.46;67.54
74232;BME280;62590;52.430;4.902;2022-11-15T12:38:57;100121.94;;;10.55;67.56
74232;BME280;62590;52.430;4.902;2022-11-15T12:41:30;100117.50;;;10.64;67.57
74232;BME280;62590;52.430;4.902;2022-11-15T12:43:57;100116.13;;;10.60;67.55
74232;BME280;62590;52.430;4.902;2022-11-15T12:48:52;100092.34;;;10.65;67.56
74232;BME280;62590;52.430;4.902;2022-11-15T12:51:20;100101.94;;;10.67;67.55
74232;BME280;62590;52.430;4.902;2022-11-15T12:53:46;100087.28;;;10.62;67.57
74232;BME280;62590;52.430;4.902;2022-11-15T12:58:56;100077.00;;;10.57;67.55
74232;BME280;62590;52.430;4.902;2022-11-15T13:07:03;100084.72;;;10.78;67.57
74232;BME280;62590;52.430;4.902;2022-11-15T13:11:58;100073.78;;;10.71;67.56
74232;BME280;62590;52.430;4.902;2022-11-15T13:17:48;100062.72;;;10.74;67.56
74232;BME280;62590;52.430;4.902;2022-11-15T13:22:20;100059.53;;;10.71;67.56
74232;BME280;62590;52.430;4.902;2022-11-15T13:25:15;100048.78;;;10.71;67.57
74232;BME280;62590;52.430;4.902;2022-11-15T13:27:41;100041.44;;;10.73;67.56
74232;BME280;62590;52.430;4.902;2022-11-15T13:30:25;100044.44;;;10.70;67.56
74232;BME280;62590;52.430;4.902;2022-11-15T13:32:51;100029.66;;;10.66;67.56
74232;BME280;62590;52.430;4.902;2022-11-15T13:35:28;100028.38;;;10.78;67.56
74232;BME280;62590;52.430;4.902;2022-11-15T13:37:55;100032.44;;;10.82;67.58
74232;BME280;62590;52.430;4.902;2022-11-15T13:42:46;100027.91;;;10.83;67.59
74232;BME280;62590;52.430;4.902;2022-11-15T13:45:15;100024.19;;;10.76;67.57
74232;BME280;62590;52.430;4.902;2022-11-15T13:47:41;100018.28;;;10.72;67.56
74232;BME280;62590;52.430;4.902;2022-11-15T13:50:11;100015.91;;;10.69;67.57
74232;BME280;62590;52.430;4.902;2022-11-15T13:52:38;100010.63;;;10.59;67.55
74232;BME280;62590;52.430;4.902;2022-11-15T13:57:44;100010.97;;;10.56;67.56
74232;BME280;62590;52.430;4.902;2022-11-15T14:00:33;100003.75;;;10.57;67.55
74232;BME280;62590;52.430;4.902;2022-11-15T14:06:09;100002.47;;;10.43;67.56
74232;BME280;62590;52.430;4.902;2022-11-15T14:08:41;99995.75;;;10.39;67.55
74232;BME280;62590;52.430;4.902;2022-11-15T14:11:12;99984.84;;;10.41;67.54
74232;BME280;62590;52.430;4.902;2022-11-15T14:13:38;99985.69;;;10.41;67.54
74232;BME280;62590;52.430;4.902;2022-11-15T14:16:15;99982.81;;;10.35;67.55
74232;BME280;62590;52.430;4.902;2022-11-15T14:18:52;99975.06;;;10.32;67.55
74232;BME280;62590;52.430;4.902;2022-11-15T14:21:19;99974.88;;;10.25;67.53
74232;BME280;62590;52.430;4.902;2022-11-15T14:23:44;99975.47;;;10.19;67.53
74232;BME280;62590;52.430;4.902;2022-11-15T14:26:26;99962.53;;;10.15;67.53
74232;BME280;62590;52.430;4.902;2022-11-15T14:28:52;99956.81;;;10.10;67.52
74232;BME280;62590;52.430;4.902;2022-11-15T14:31:18;99953.56;;;10.06;67.52
74232;BME280;62590;52.430;4.902;2022-11-15T14:33:44;99953.19;;;10.01;67.51
74232;BME280;62590;52.430;4.902;2022-11-15T14:38:38;99941.63;;;10.01;67.53
74232;BME280;62590;52.430;4.902;2022-11-15T14:41:04;99946.97;;;10.01;67.51
74232;BME280;62590;52.430;4.902;2022-11-15T14:43:29;99935.25;;;10.02;67.52
74232;BME280;62590;52.430;4.902;2022-11-15T14:45:55;99928.38;;;9.99;67.52
74232;BME280;62590;52.430;4.902;2022-11-15T14:48:20;99925.19;;;9.96;67.52
74232;BME280;62590;52.430;4.902;2022-11-15T14:50:47;99922.63;;;9.94;67.51
74232;BME280;62590;52.430;4.902;2022-11-15T14:53:15;99921.31;;;9.98;67.52
74232;BME280;62590;52.430;4.902;2022-11-15T14:55:40;99920.72;;;9.87;67.50